Time;durP1;ratioP1;P1;durP2;ratioP2;P2;SDS_P1;SDS_P2;PMS_P1;PMS_P2;Temp;Humidity;BMP_temperature;BMP_pressure;BME280_temperature;BME280_humidity;BME280_pressure;Samples;Min_cycle;Max_cycle;Signal;HPM_P1;HPM_P2
2022/06/06 00:00:08;;;;;;;;;;;;;;;13.49;100.00;98967.22;5064621;28;19998;-76
2022/06/06 00:02:38;;;;;;;;;;;;;;;13.52;100.00;98969.13;5075676;28;19951;-76
2022/06/06 00:05:06;;;;;;;;;;;;;;;13.61;100.00;98969.25;5075573;28;20296;-76
2022/06/06 00:07:33;;;;;;;;;;;;;;;13.65;100.00;98967.13;5075363;28;19925;-76
2022/06/06 00:10:00;;;;;;;;;;;;;;;13.50;100.00;98958.34;5075536;28;19947;-76
2022/06/06 00:12:27;;;;;;;;;;;;;;;13.65;100.00;98955.91;5074117;28;19928;-76
2022/06/06 00:14:55;;;;;;;;;;;;;;;13.51;100.00;98945.88;5057538;28;19993;-76
2022/06/06 00:17:22;;;;;;;;;;;;;;;13.51;100.00;98948.69;5075289;28;19925;-77
2022/06/06 00:19:49;;;;;;;;;;;;;;;13.06;100.00;98950.78;5075184;28;19947;-77
2022/06/06 00:22:16;;;;;;;;;;;;;;;13.13;100.00;98952.63;5074556;28;19925;-76
2022/06/06 00:24:44;;;;;;;;;;;;;;;13.07;100.00;98955.16;5056714;28;19978;-76
2022/06/06 00:27:13;;;;;;;;;;;;;;;13.16;100.00;98946.91;5074999;28;19924;-76
2022/06/06 00:29:40;;;;;;;;;;;;;;;13.26;100.00;98936.59;5074941;28;20375;-76
2022/06/06 00:34:54;;;;;;;;;;;;;;;13.39;100.00;98932.59;5056997;28;19932;-76
2022/06/06 00:37:29;;;;;;;;;;;;;;;13.60;100.00;98937.59;5074180;28;19924;-77
2022/06/06 00:39:58;;;;;;;;;;;;;;;13.68;100.00;98932.53;5074785;28;20013;-76
2022/06/06 00:42:27;;;;;;;;;;;;;;;13.62;100.00;98928.72;5074682;28;20498;-76
2022/06/06 00:45:12;;;;;;;;;;;;;;;13.49;100.00;98925.09;5074735;28;19970;-76
2022/06/06 00:47:40;;;;;;;;;;;;;;;13.55;100.00;98923.31;5056805;28;19925;-77
2022/06/06 00:50:13;;;;;;;;;;;;;;;13.52;100.00;98932.63;5056992;28;20005;-77
2022/06/06 00:52:43;;;;;;;;;;;;;;;13.56;100.00;98922.09;5074186;28;20290;-77
2022/06/06 00:57:22;;;;;;;;;;;;;;;13.60;100.00;98920.75;5091190;28;19917;-77
2022/06/06 00:59:49;;;;;;;;;;;;;;;13.67;100.00;98908.50;5056681;28;20394;-77
2022/06/06 01:02:17;;;;;;;;;;;;;;;13.51;100.00;98911.44;5091279;28;20356;-77
2022/06/06 01:04:45;;;;;;;;;;;;;;;13.65;100.00;98911.78;5091141;28;19931;-76
2022/06/06 01:07:12;;;;;;;;;;;;;;;13.60;100.00;98903.13;5090804;28;19932;-76
2022/06/06 01:09:40;;;;;;;;;;;;;;;13.55;100.00;98906.47;5091009;28;20011;-77
2022/06/06 01:12:11;;;;;;;;;;;;;;;13.46;100.00;98903.56;5072964;28;19936;-77
2022/06/06 01:14:39;;;;;;;;;;;;;;;13.24;100.00;98902.63;5091286;28;19948;-77
2022/06/06 01:17:12;;;;;;;;;;;;;;;13.30;100.00;98903.66;5091003;28;19931;-77
2022/06/06 01:19:46;;;;;;;;;;;;;;;13.47;100.00;98905.13;5073013;28;19924;-77
2022/06/06 01:22:31;;;;;;;;;;;;;;;13.22;100.00;98900.25;5093511;28;20382;-77
2022/06/06 01:24:58;;;;;;;;;;;;;;;13.24;100.00;98902.63;5111324;28;20317;-77
2022/06/06 01:27:34;;;;;;;;;;;;;;;13.35;100.00;98897.47;5111053;28;19924;-77
2022/06/06 01:30:05;;;;;;;;;;;;;;;13.19;100.00;98895.50;5093075;28;20010;-76
2022/06/06 01:32:48;;;;;;;;;;;;;;;13.27;100.00;98890.50;5092809;28;19930;-77
2022/06/06 01:35:36;;;;;;;;;;;;;;;13.22;100.00;98888.25;5110609;28;19924;-77
2022/06/06 01:38:04;;;;;;;;;;;;;;;13.15;100.00;98891.22;5111044;28;19924;-76
2022/06/06 01:40:42;;;;;;;;;;;;;;;13.02;100.00;98890.41;5110977;28;20093;-76
2022/06/06 01:43:12;;;;;;;;;;;;;;;13.14;100.00;98889.66;5092681;28;19979;-77
2022/06/06 01:45:45;;;;;;;;;;;;;;;13.39;100.00;98887.69;5110855;28;19924;-76
2022/06/06 01:48:16;;;;;;;;;;;;;;;13.32;100.00;98889.94;5110864;28;19924;-77
2022/06/06 01:50:43;;;;;;;;;;;;;;;13.28;100.00;98886.47;5110502;28;19978;-77
2022/06/06 01:53:12;;;;;;;;;;;;;;;13.22;100.00;98877.03;5110746;28;19924;-77
2022/06/06 01:55:42;;;;;;;;;;;;;;;13.30;100.00;98884.00;5110266;28;19924;-77
2022/06/06 01:58:11;;;;;;;;;;;;;;;13.33;100.00;98883.88;5110631;28;19977;-77
2022/06/06 02:00:38;;;;;;;;;;;;;;;13.07;100.00;98882.22;5110607;28;19931;-77
2022/06/06 02:03:06;;;;;;;;;;;;;;;13.14;100.00;98875.66;5110520;28;19931;-77
2022/06/06 02:05:33;;;;;;;;;;;;;;;12.96;100.00;98875.34;5110308;28;19947;-77
2022/06/06 02:08:00;;;;;;;;;;;;;;;12.90;100.00;98877.13;5100508;28;19924;-76
2022/06/06 02:10:28;;;;;;;;;;;;;;;12.97;100.00;98865.69;5078795;28;19942;-77
2022/06/06 02:12:55;;;;;;;;;;;;;;;12.84;100.00;98867.66;5078768;28;19927;-76
2022/06/06 02:15:24;;;;;;;;;;;;;;;12.92;100.00;98860.66;5078730;28;19924;-77
2022/06/06 02:17:51;;;;;;;;;;;;;;;12.86;100.00;98860.38;5096524;28;19987;-76
2022/06/06 02:20:20;;;;;;;;;;;;;;;12.77;100.00;98858.22;5078431;28;19924;-76
2022/06/06 02:22:47;;;;;;;;;;;;;;;12.68;100.00;98855.28;5078345;28;19990;-77
2022/06/06 02:25:15;;;;;;;;;;;;;;;12.61;100.00;98860.28;5061894;28;19950;-77
2022/06/06 02:27:42;;;;;;;;;;;;;;;12.78;100.00;98854.19;5096336;28;20383;-77
2022/06/06 02:30:12;;;;;;;;;;;;;;;12.85;100.00;98855.22;5096610;28;20022;-76
2022/06/06 02:32:40;;;;;;;;;;;;;;;12.86;100.00;98860.38;5095853;28;20084;-77
2022/06/06 02:35:08;;;;;;;;;;;;;;;13.21;100.00;98858.63;5078244;28;19924;-77
2022/06/06 02:37:36;;;;;;;;;;;;;;;12.92;100.00;98860.66;5096058;28;19924;-77
2022/06/06 02:40:05;;;;;;;;;;;;;;;12.82;100.00;98868.13;5096119;28;19977;-77
2022/06/06 02:42:31;;;;;;;;;;;;;;;12.58;100.00;98866.78;5096188;28;20028;-76
2022/06/06 02:44:59;;;;;;;;;;;;;;;12.85;100.00;98863.63;5096051;28;19952;-77
2022/06/06 02:47:26;;;;;;;;;;;;;;;12.80;100.00;98855.78;5077939;28;20307;-76
2022/06/06 02:49:54;;;;;;;;;;;;;;;12.97;100.00;98854.47;5095979;28;19928;-77
2022/06/06 02:52:21;;;;;;;;;;;;;;;12.95;100.00;98857.72;5078157;28;19928;-76
2022/06/06 02:54:48;;;;;;;;;;;;;;;13.01;100.00;98855.97;5096226;28;20015;-77
2022/06/06 02:57:16;;;;;;;;;;;;;;;13.10;100.00;98856.09;5095380;28;19924;-77
2022/06/06 02:59:45;;;;;;;;;;;;;;;13.16;100.00;98861.97;5095850;28;19924;-77
2022/06/06 03:02:12;;;;;;;;;;;;;;;13.15;100.00;98863.19;5095308;28;19947;-77
2022/06/06 03:04:39;;;;;;;;;;;;;;;13.13;100.00;98862.84;5095567;28;19924;-77
2022/06/06 03:07:22;;;;;;;;;;;;;;;12.54;100.00;98860.50;5084425;28;19978;-77
2022/06/06 03:09:49;;;;;;;;;;;;;;;12.78;100.00;98862.59;5075358;28;19931;-77
2022/06/06 03:12:31;;;;;;;;;;;;;;;12.73;100.00;98859.56;5057395;28;19932;-77
2022/06/06 03:15:08;;;;;;;;;;;;;;;12.94;100.00;98855.34;5057316;28;20322;-77
2022/06/06 03:20:50;;;;;;;;;;;;;;;13.00;100.00;98853.59;5074347;28;20049;-77
2022/06/06 03:23:31;;;;;;;;;;;;;;;12.77;100.00;98851.81;5074769;28;20536;-77
2022/06/06 03:26:16;;;;;;;;;;;;;;;12.88;100.00;98854.31;5075032;28;19925;-77
2022/06/06 03:29:08;;;;;;;;;;;;;;;13.01;100.00;98852.41;5075029;28;20019;-77
2022/06/06 03:31:54;;;;;;;;;;;;;;;12.95;100.00;98854.16;5074440;28;19929;-77
2022/06/06 03:34:33;;;;;;;;;;;;;;;12.97;100.00;98854.47;5057184;28;20020;-77
2022/06/06 03:37:12;;;;;;;;;;;;;;;12.91;100.00;98856.25;5074916;28;19928;-76
2022/06/06 03:39:44;;;;;;;;;;;;;;;12.93;100.00;98854.59;5057049;28;20022;-77
2022/06/06 03:42:37;;;;;;;;;;;;;;;12.85;100.00;98852.41;5074609;28;20023;-77
2022/06/06 03:45:11;;;;;;;;;;;;;;;12.78;100.00;98854.19;5071214;28;20288;-77
2022/06/06 03:47:50;;;;;;;;;;;;;;;12.78;100.00;98851.38;5074742;28;19925;-77
2022/06/06 03:50:17;;;;;;;;;;;;;;;12.69;100.00;98850.47;5056731;28;19931;-77
2022/06/06 03:52:47;;;;;;;;;;;;;;;12.76;100.00;98855.88;5074429;28;19962;-76
2022/06/06 03:55:37;;;;;;;;;;;;;;;12.72;100.00;98860.81;5056327;28;19970;-76
2022/06/06 03:58:04;;;;;;;;;;;;;;;12.95;100.00;98863.31;5074274;28;19978;-76
2022/06/06 04:00:32;;;;;;;;;;;;;;;12.64;100.00;98857.41;5073967;28;20019;-77
2022/06/06 04:03:00;;;;;;;;;;;;;;;12.86;100.00;98860.38;5056449;28;20019;-77
2022/06/06 04:05:29;;;;;;;;;;;;;;;12.73;100.00;98860.34;5073959;28;19925;-77
2022/06/06 04:07:56;;;;;;;;;;;;;;;12.63;100.00;98860.66;5056195;28;19935;-76
2022/06/06 04:10:29;;;;;;;;;;;;;;;12.51;100.00;98878.97;5074123;28;19924;-76
2022/06/06 04:12:56;;;;;;;;;;;;;;;12.45;100.00;98875.13;5073985;28;19931;-77
2022/06/06 04:15:42;;;;;;;;;;;;;;;12.37;100.00;98879.31;5073778;28;20275;-76
2022/06/06 04:18:09;;;;;;;;;;;;;;;12.48;100.00;98879.84;5073803;28;19932;-77
2022/06/06 04:20:40;;;;;;;;;;;;;;;12.55;100.00;98879.69;5056061;28;20014;-77
2022/06/06 04:23:07;;;;;;;;;;;;;;;12.49;100.00;98873.03;5056044;28;19928;-76
2022/06/06 04:25:44;;;;;;;;;;;;;;;12.51;100.00;98873.34;5055925;28;19932;-76
2022/06/06 04:28:23;;;;;;;;;;;;;;;12.58;100.00;98864.78;5055840;28;19932;-77
2022/06/06 04:30:59;;;;;;;;;;;;;;;12.71;100.00;98868.41;5073449;28;19924;-76
2022/06/06 04:33:38;;;;;;;;;;;;;;;12.68;100.00;98872.09;5073728;28;19924;-76
2022/06/06 04:36:05;;;;;;;;;;;;;;;12.71;100.00;98876.03;5073585;28;20382;-76
2022/06/06 04:38:44;;;;;;;;;;;;;;;12.93;100.00;98873.41;5055828;28;19978;-77
2022/06/06 04:41:14;;;;;;;;;;;;;;;12.92;100.00;98869.06;5055767;28;19929;-76
2022/06/06 04:43:41;;;;;;;;;;;;;;;12.95;100.00;98874.53;5055598;28;19932;-76
2022/06/06 04:46:21;;;;;;;;;;;;;;;12.81;100.00;98871.38;5055806;28;19960;-77
2022/06/06 04:48:50;;;;;;;;;;;;;;;12.94;100.00;98875.00;5073469;28;19935;-76
2022/06/06 04:51:19;;;;;;;;;;;;;;;13.08;100.00;98877.41;5055558;28;19931;-77
2022/06/06 04:53:48;;;;;;;;;;;;;;;13.09;100.00;98881.78;5055715;28;19932;-77
2022/06/06 04:56:15;;;;;;;;;;;;;;;13.27;100.00;98879.28;5073071;28;20367;-76
2022/06/06 04:58:43;;;;;;;;;;;;;;;13.34;100.00;98882.66;5055335;28;19928;-76
2022/06/06 05:01:12;;;;;;;;;;;;;;;13.32;100.00;98875.91;5073507;28;20300;-77
2022/06/06 05:03:39;;;;;;;;;;;;;;;13.17;100.00;98880.38;5073271;28;19925;-76
2022/06/06 05:06:17;;;;;;;;;;;;;;;13.40;100.00;98871.66;5073566;28;19931;-76
2022/06/06 05:08:57;;;;;;;;;;;;;;;13.23;100.00;98867.34;5055617;28;19924;-76
2022/06/06 05:11:31;;;;;;;;;;;;;;;13.30;100.00;98869.97;5046237;28;19975;-77
2022/06/06 05:14:16;;;;;;;;;;;;;;;13.08;100.00;98872.63;5042890;28;19924;-77
2022/06/06 05:17:02;;;;;;;;;;;;;;;13.11;100.00;98868.13;5073302;28;19925;-76
2022/06/06 05:19:34;;;;;;;;;;;;;;;13.20;100.00;98883.06;5073232;28;19924;-77
2022/06/06 05:22:15;;;;;;;;;;;;;;;13.47;100.00;98877.84;5062228;28;19925;-77
2022/06/06 05:24:45;;;;;;;;;;;;;;;13.63;100.00;98874.94;5053241;28;19935;-77
2022/06/06 05:27:33;;;;;;;;;;;;;;;13.20;100.00;98876.66;5052935;28;19928;-77
2022/06/06 05:30:00;;;;;;;;;;;;;;;13.05;100.00;98872.69;5038416;28;19963;-76
2022/06/06 05:32:42;;;;;;;;;;;;;;;13.10;100.00;98874.97;5073102;28;19924;-76
2022/06/06 05:35:12;;;;;;;;;;;;;;;12.96;100.00;98881.75;5073026;28;19932;-76
2022/06/06 05:37:49;;;;;;;;;;;;;;;12.10;100.00;98892.06;5072276;28;19924;-77
2022/06/06 05:40:28;;;;;;;;;;;;;;;12.24;100.00;98881.28;5053046;28;20019;-76
2022/06/06 05:43:01;;;;;;;;;;;;;;;12.75;100.00;98885.16;5038475;28;20270;-76
2022/06/06 05:45:51;;;;;;;;;;;;;;;12.97;100.00;98880.50;5097059;28;19931;-77
2022/06/06 05:48:25;;;;;;;;;;;;;;;13.21;100.00;98879.03;5084547;28;20023;-76
2022/06/06 05:51:07;;;;;;;;;;;;;;;13.43;100.00;98877.19;5096958;28;20027;-76
2022/06/06 05:54:03;;;;;;;;;;;;;;;13.57;100.00;98881.56;5097198;28;19924;-76
2022/06/06 05:56:36;;;;;;;;;;;;;;;13.63;100.00;98885.38;4994045;28;19926;-76
2022/06/06 05:59:17;;;;;;;;;;;;;;;13.46;100.00;98875.50;4995111;28;19930;-77
2022/06/06 06:02:22;;;;;;;;;;;;;;;12.83;100.00;98882.94;4994923;28;19933;-76
2022/06/06 06:04:51;;;;;;;;;;;;;;;13.15;100.00;98883.63;4899037;29;19931;-77
2022/06/06 06:07:17;;;;;;;;;;;;;;;13.14;100.00;98882.06;4898946;29;19927;-77
2022/06/06 06:10:01;;;;;;;;;;;;;;;13.52;100.00;98884.91;4898530;29;19927;-77
2022/06/06 06:12:28;;;;;;;;;;;;;;;13.63;100.00;98880.53;4898882;29;20026;-77
2022/06/06 06:14:58;;;;;;;;;;;;;;;13.55;100.00;98881.22;4883331;29;19965;-76
2022/06/06 06:17:28;;;;;;;;;;;;;;;13.35;100.00;98886.22;4882997;29;19982;-76
2022/06/06 06:19:59;;;;;;;;;;;;;;;13.60;100.00;98880.66;4898637;29;19972;-77
2022/06/06 06:22:28;;;;;;;;;;;;;;;13.62;100.00;98889.41;4898506;29;19938;-77
2022/06/06 06:25:00;;;;;;;;;;;;;;;13.48;100.00;98884.25;4897986;29;19947;-76
2022/06/06 06:27:28;;;;;;;;;;;;;;;13.65;100.00;98889.31;4898452;29;19931;-76
2022/06/06 06:29:57;;;;;;;;;;;;;;;13.58;100.00;98883.94;4898459;29;19970;-77
2022/06/06 06:32:27;;;;;;;;;;;;;;;13.80;100.00;98890.44;4918452;28;19933;-77
2022/06/06 06:35:12;;;;;;;;;;;;;;;13.56;100.00;98886.38;4994428;28;19924;-77
2022/06/06 06:37:45;;;;;;;;;;;;;;;13.80;100.00;98884.81;5075760;28;19928;-77
2022/06/06 06:40:31;;;;;;;;;;;;;;;13.50;100.00;98887.38;5050449;28;19931;-77
2022/06/06 06:43:17;;;;;;;;;;;;;;;13.64;100.00;98892.56;5048092;28;20417;-77
2022/06/06 06:45:49;;;;;;;;;;;;;;;13.66;100.00;98895.72;5027948;28;19932;-75
2022/06/06 06:48:27;;;;;;;;;;;;;;;13.79;100.00;98893.69;5054624;28;19925;-79
2022/06/06 06:51:01;;;;;;;;;;;;;;;13.85;100.00;98891.91;5055769;28;20430;-79
2022/06/06 06:53:34;;;;;;;;;;;;;;;13.50;100.00;98898.59;5055494;28;20325;-80
2022/06/06 06:56:01;;;;;;;;;;;;;;;13.54;100.00;98893.69;5031506;28;19925;-77
2022/06/06 06:58:49;;;;;;;;;;;;;;;13.76;100.00;98891.78;5055552;28;19925;-78
2022/06/06 07:01:20;;;;;;;;;;;;;;;13.64;100.00;98898.19;5052052;28;20264;-78
2022/06/06 07:09:25;;;;;;;;;;;;;;;13.56;100.00;98897.63;5053555;28;19925;-78
2022/06/06 07:11:58;;;;;;;;;;;;;;;13.77;100.00;98902.56;5056741;28;19925;-78
2022/06/06 07:14:49;;;;;;;;;;;;;;;13.83;100.00;98902.78;5056574;28;19960;-77
2022/06/06 07:17:18;;;;;;;;;;;;;;;14.00;100.00;98907.06;5050187;28;19924;-77
2022/06/06 07:20:06;;;;;;;;;;;;;;;14.07;100.00;98909.66;5054307;28;20330;-77
2022/06/06 07:22:59;;;;;;;;;;;;;;;14.06;100.00;98920.09;5034658;28;20288;-77
2022/06/06 07:25:24;;;;;;;;;;;;;;;13.81;100.00;98908.84;5045213;28;19974;-77
2022/06/06 07:27:51;;;;;;;;;;;;;;;13.92;100.00;98912.13;5037775;28;20020;-76
2022/06/06 07:30:19;;;;;;;;;;;;;;;13.96;100.00;98909.22;5037229;28;19929;-76
2022/06/06 07:32:46;;;;;;;;;;;;;;;14.02;100.00;98910.22;5038748;28;20357;-76
2022/06/06 07:35:16;;;;;;;;;;;;;;;13.57;100.00;98910.41;5035662;28;19929;-76
2022/06/06 07:38:02;;;;;;;;;;;;;;;14.09;100.00;98904.34;5054068;28;19929;-76
2022/06/06 07:40:36;;;;;;;;;;;;;;;13.94;100.00;98909.66;5054973;28;19932;-76
2022/06/06 07:43:21;;;;;;;;;;;;;;;14.23;100.00;98910.34;5050132;28;19950;-76
2022/06/06 07:45:51;;;;;;;;;;;;;;;14.30;100.00;98901.66;5050032;28;19925;-76
2022/06/06 07:48:25;;;;;;;;;;;;;;;14.57;100.00;98903.97;5057227;28;19924;-76
2022/06/06 07:51:01;;;;;;;;;;;;;;;14.48;100.00;98901.06;5048771;28;19951;-76
2022/06/06 07:53:28;;;;;;;;;;;;;;;14.48;100.00;98903.88;5034109;28;19979;-76
2022/06/06 07:55:54;;;;;;;;;;;;;;;14.40;100.00;98911.00;5063787;28;20308;-76
2022/06/06 07:58:44;;;;;;;;;;;;;;;14.18;100.00;98904.47;5073681;28;19928;-76
2022/06/06 08:01:24;;;;;;;;;;;;;;;14.45;100.00;98908.38;5070283;28;20038;-76
2022/06/06 08:03:58;;;;;;;;;;;;;;;14.35;100.00;98905.94;5073302;28;19925;-76
2022/06/06 08:06:33;;;;;;;;;;;;;;;15.02;100.00;98901.56;5071215;28;19970;-76
2022/06/06 08:09:19;;;;;;;;;;;;;;;14.98;100.00;98912.13;5079428;28;20304;-76
2022/06/06 08:11:49;;;;;;;;;;;;;;;14.86;100.00;98909.41;5070744;28;19925;-77
2022/06/06 08:14:21;;;;;;;;;;;;;;;14.92;100.00;98897.09;5055965;28;19925;-76
2022/06/06 08:16:49;;;;;;;;;;;;;;;14.73;100.00;98905.81;5073498;28;19925;-77
2022/06/06 08:19:28;;;;;;;;;;;;;;;14.76;100.00;98905.72;5061931;28;19971;-76
2022/06/06 08:21:56;;;;;;;;;;;;;;;14.66;100.00;98906.09;5073327;28;19928;-76
2022/06/06 08:24:38;;;;;;;;;;;;;;;14.57;100.00;98903.19;5074096;28;19928;-76
2022/06/06 08:27:13;;;;;;;;;;;;;;;14.98;100.00;98895.25;5073958;28;19993;-76
2022/06/06 08:29:41;;;;;;;;;;;;;;;15.31;100.00;98890.03;5073233;28;19929;-76
2022/06/06 08:32:08;;;;;;;;;;;;;;;14.97;100.00;98893.69;5050618;28;20370;-76
2022/06/06 08:34:36;;;;;;;;;;;;;;;14.95;100.00;98884.94;5003291;28;19925;-76
2022/06/06 08:37:20;;;;;;;;;;;;;;;14.78;100.00;98889.19;5019112;28;19933;-76
2022/06/06 08:40:06;;;;;;;;;;;;;;;14.93;100.00;98893.06;5053599;28;19932;-76
2022/06/06 08:42:39;;;;;;;;;;;;;;;15.28;100.00;98893.78;5053558;28;19924;-76
2022/06/06 08:45:06;;;;;;;;;;;;;;;15.39;100.00;98885.72;5035901;28;19924;-76
2022/06/06 08:47:34;;;;;;;;;;;;;;;15.65;100.00;98895.56;5036019;28;19935;-76
2022/06/06 08:53:06;;;;;;;;;;;;;;;15.76;100.00;98898.78;5072775;28;19928;-76
2022/06/06 08:55:51;;;;;;;;;;;;;;;15.90;100.00;98896.16;5050787;28;20001;-76
2022/06/06 08:58:37;;;;;;;;;;;;;;;15.91;100.00;98894.94;5072347;28;19928;-76
2022/06/06 09:01:13;;;;;;;;;;;;;;;15.64;100.00;98897.63;5046489;28;20081;-75
2022/06/06 09:03:51;;;;;;;;;;;;;;;15.69;100.00;98899.06;5053399;28;20296;-74
2022/06/06 09:06:19;;;;;;;;;;;;;;;15.87;100.00;98908.34;5052874;28;19928;-76
2022/06/06 09:08:55;;;;;;;;;;;;;;;15.92;100.00;98907.75;5071137;28;19931;-76
2022/06/06 09:11:40;;;;;;;;;;;;;;;15.39;100.00;98909.03;5069371;28;20372;-77
2022/06/06 09:14:07;;;;;;;;;;;;;;;15.35;100.00;98901.94;5046385;28;19931;-76
2022/06/06 09:16:54;;;;;;;;;;;;;;;15.51;100.00;98905.34;5031766;28;20276;-76
2022/06/06 09:19:21;;;;;;;;;;;;;;;15.81;100.00;98901.75;5052897;28;19925;-76
2022/06/06 09:21:49;;;;;;;;;;;;;;;15.70;100.00;98911.88;5053779;28;20344;-76
2022/06/06 09:24:15;;;;;;;;;;;;;;;15.57;100.00;98909.16;5053682;28;20549;-76
2022/06/06 09:30:06;;;;;;;;;;;;;;;15.44;100.00;98910.47;5075385;28;19930;-76
2022/06/06 09:32:37;;;;;;;;;;;;;;;15.49;100.00;98913.50;5081801;28;19935;-76
2022/06/06 09:35:19;;;;;;;;;;;;;;;15.41;100.00;98909.38;5059143;28;20283;-76
2022/06/06 09:38:01;;;;;;;;;;;;;;;15.74;100.00;98907.69;5069030;28;19932;-76
2022/06/06 09:40:42;;;;;;;;;;;;;;;15.73;100.00;98906.13;5072526;28;20268;-76
2022/06/06 09:43:09;;;;;;;;;;;;;;;15.86;100.00;98915.25;5058649;28;20328;-75
2022/06/06 09:45:54;;;;;;;;;;;;;;;15.59;100.00;98906.66;5055524;28;20376;-76
2022/06/06 09:48:37;;;;;;;;;;;;;;;15.20;100.00;98906.53;5072448;28;20288;-76
2022/06/06 09:51:07;;;;;;;;;;;;;;;15.82;100.00;98908.97;5071089;28;20399;-75
2022/06/06 09:53:34;;;;;;;;;;;;;;;15.90;100.00;98904.63;5049301;28;20362;-75
2022/06/06 09:59:25;;;;;;;;;;;;;;;15.88;100.00;98901.50;5052725;28;19929;-76
2022/06/06 10:01:58;;;;;;;;;;;;;;;16.13;100.00;98900.47;5035217;28;20356;-76
2022/06/06 10:04:44;;;;;;;;;;;;;;;16.27;100.00;98895.06;5052787;28;19925;-76
2022/06/06 10:07:24;;;;;;;;;;;;;;;16.56;100.00;98910.81;5053075;28;19979;-76
2022/06/06 10:10:13;;;;;;;;;;;;;;;16.71;100.00;98903.31;5052738;28;19924;-76
2022/06/06 10:12:56;;;;;;;;;;;;;;;16.86;100.00;98902.22;5052040;28;19947;-76
2022/06/06 10:15:55;;;;;;;;;;;;;;;16.32;100.00;98895.69;5072268;28;19929;-77
2022/06/06 10:18:31;;;;;;;;;;;;;;;14.99;100.00;98902.47;4970251;28;19933;-77
2022/06/06 10:21:10;;;;;;;;;;;;;;;15.19;100.00;98905.72;4971088;28;20367;-76
2022/06/06 10:23:37;;;;;;;;;;;;;;;15.63;100.00;98906.53;4954742;28;20597;-76
2022/06/06 10:26:07;;;;;;;;;;;;;;;15.77;100.00;98912.38;4955561;28;19966;-76
2022/06/06 10:28:37;;;;;;;;;;;;;;;15.79;100.00;98903.47;4970337;28;19962;-76
2022/06/06 10:31:04;;;;;;;;;;;;;;;15.96;100.00;98908.41;4954160;28;20385;-76
2022/06/06 10:33:38;;;;;;;;;;;;;;;16.07;100.00;98903.13;4971029;28;20432;-77
2022/06/06 10:36:16;;;;;;;;;;;;;;;16.01;100.00;98899.34;4955135;28;19933;-76
2022/06/06 10:38:46;;;;;;;;;;;;;;;16.01;100.00;98904.19;4971125;28;20429;-77
2022/06/06 10:41:25;;;;;;;;;;;;;;;16.12;100.00;98905.34;4970670;28;19958;-76
2022/06/06 10:44:12;;;;;;;;;;;;;;;16.13;100.00;98912.53;4970814;28;20555;-76
2022/06/06 10:46:54;;;;;;;;;;;;;;;16.25;100.00;98908.81;4954724;28;20433;-76
2022/06/06 10:49:21;;;;;;;;;;;;;;;16.25;100.00;98903.19;4954494;28;19933;-77
2022/06/06 10:51:49;;;;;;;;;;;;;;;16.45;100.00;98899.97;4970769;28;20555;-77
2022/06/06 10:54:16;;;;;;;;;;;;;;;16.68;100.00;98907.06;4996925;28;19932;-76
2022/06/06 10:56:43;;;;;;;;;;;;;;;17.03;100.00;98905.50;5071589;28;19928;-76
2022/06/06 10:59:19;;;;;;;;;;;;;;;17.20;100.00;98898.31;5049926;28;19990;-76
2022/06/06 11:01:47;;;;;;;;;;;;;;;17.20;100.00;98901.91;5053528;28;20430;-75
2022/06/06 11:04:14;;;;;;;;;;;;;;;17.33;100.00;98908.16;5053449;28;19928;-75
2022/06/06 11:07:00;;;;;;;;;;;;;;;17.16;100.00;98914.63;5054324;28;19933;-76
2022/06/06 11:09:33;;;;;;;;;;;;;;;16.85;100.00;98917.59;5036878;28;20007;-76
2022/06/06 11:12:03;;;;;;;;;;;;;;;17.09;100.00;98912.09;5053697;28;19928;-76
2022/06/06 11:14:37;;;;;;;;;;;;;;;17.16;100.00;98904.09;5071804;28;19959;-76
2022/06/06 11:17:23;;;;;;;;;;;;;;;16.05;100.00;98899.22;5053885;28;20600;-76
2022/06/06 11:20:00;;;;;;;;;;;;;;;15.91;100.00;98900.56;5053966;28;19978;-76
2022/06/06 11:22:38;;;;;;;;;;;;;;;15.76;100.00;98910.84;5071716;28;19928;-76
2022/06/06 11:25:05;;;;;;;;;;;;;;;15.93;100.00;98911.38;5071843;28;19974;-75
2022/06/06 11:27:35;;;;;;;;;;;;;;;16.28;100.00;98921.97;5071050;28;19956;-76
2022/06/06 11:30:21;;;;;;;;;;;;;;;16.42;100.00;98917.03;5052682;28;19947;-74
2022/06/06 11:33:04;;;;;;;;;;;;;;;16.56;100.00;98922.09;5053165;28;20023;-76
2022/06/06 11:35:50;;;;;;;;;;;;;;;16.62;100.00;98921.00;5053513;28;20456;-76
2022/06/06 11:38:26;;;;;;;;;;;;;;;16.09;100.00;98917.53;5071205;28;19924;-75
2022/06/06 11:40:59;;;;;;;;;;;;;;;16.36;100.00;98916.84;5070754;28;19924;-75
2022/06/06 11:43:29;;;;;;;;;;;;;;;16.29;100.00;98914.31;5071094;28;19928;-75
2022/06/06 11:45:56;;;;;;;;;;;;;;;16.37;100.00;98918.44;5036128;28;19925;-76
2022/06/06 11:48:32;;;;;;;;;;;;;;;16.50;100.00;98918.31;5070783;28;20310;-75
2022/06/06 11:51:05;;;;;;;;;;;;;;;16.71;100.00;98915.38;5053048;28;19924;-79
2022/06/06 11:54:03;;;;;;;;;;;;;;;16.90;100.00;98910.53;5053476;28;20380;-76
2022/06/06 11:56:46;;;;;;;;;;;;;;;16.43;100.00;98910.13;5070152;28;20015;-76
2022/06/06 11:59:31;;;;;;;;;;;;;;;16.71;100.00;98906.91;5052643;28;19924;-75
2022/06/06 12:02:16;;;;;;;;;;;;;;;16.79;100.00;98910.22;5070850;28;19928;-75
2022/06/06 12:05:02;;;;;;;;;;;;;;;16.81;100.00;98913.38;5070069;28;19939;-76
2022/06/06 12:07:47;;;;;;;;;;;;;;;16.81;100.00;98907.72;5052429;28;19929;-77
2022/06/06 12:10:20;;;;;;;;;;;;;;;16.89;100.00;98915.41;5070627;28;19925;-76
2022/06/06 12:12:47;;;;;;;;;;;;;;;16.55;100.00;98912.84;5068283;28;19967;-77
2022/06/06 12:15:27;;;;;;;;;;;;;;;16.55;100.00;98914.88;5051942;28;20031;-76
2022/06/06 12:18:12;;;;;;;;;;;;;;;16.48;100.00;98918.00;5069656;28;19994;-77
2022/06/06 12:20:49;;;;;;;;;;;;;;;16.32;100.00;98919.03;5069906;28;20360;-76
2022/06/06 12:23:34;;;;;;;;;;;;;;;16.34;100.00;98919.38;5051893;28;20340;-77
2022/06/06 12:26:06;;;;;;;;;;;;;;;16.29;100.00;98919.97;5069685;28;19929;-78
2022/06/06 12:28:52;;;;;;;;;;;;;;;16.13;100.00;98923.03;5051403;28;19931;-77
2022/06/06 12:31:22;;;;;;;;;;;;;;;16.11;100.00;98926.31;5052726;28;19924;-77
2022/06/06 12:33:54;;;;;;;;;;;;;;;16.15;100.00;98921.31;5069827;28;20276;-77
2022/06/06 12:36:24;;;;;;;;;;;;;;;16.17;100.00;98932.94;5052070;28;19928;-77
2022/06/06 12:38:51;;;;;;;;;;;;;;;16.15;100.00;98929.00;5052585;28;19925;-77
2022/06/06 12:41:27;;;;;;;;;;;;;;;16.33;100.00;98931.09;5070059;28;20578;-77
2022/06/06 12:44:02;;;;;;;;;;;;;;;16.22;100.00;98921.03;5072664;28;20261;-77
2022/06/06 12:46:35;;;;;;;;;;;;;;;16.23;100.00;98922.63;5073314;28;20019;-76
2022/06/06 12:49:18;;;;;;;;;;;;;;;16.36;100.00;98927.34;5073743;28;19931;-77
2022/06/06 12:51:51;;;;;;;;;;;;;;;16.47;100.00;98919.25;5055928;28;19924;-77
2022/06/06 12:54:22;;;;;;;;;;;;;;;16.74;100.00;98927.75;5074097;28;19924;-77
2022/06/06 12:56:54;;;;;;;;;;;;;;;16.87;100.00;98919.94;5018496;28;19983;-76
2022/06/06 12:59:21;;;;;;;;;;;;;;;16.68;100.00;98919.13;5049332;28;20268;-76
2022/06/06 13:01:48;;;;;;;;;;;;;;;15.75;100.00;98928.19;5016299;28;19928;-76
2022/06/06 13:04:18;;;;;;;;;;;;;;;15.62;100.00;98928.28;5049728;28;19924;-76
2022/06/06 13:06:55;;;;;;;;;;;;;;;15.82;100.00;98927.91;5049654;28;20368;-76
2022/06/06 13:09:22;;;;;;;;;;;;;;;15.75;100.00;98931.00;5031980;28;19932;-76
2022/06/06 13:12:05;;;;;;;;;;;;;;;16.32;100.00;98918.25;5032296;28;20520;-75
2022/06/06 13:14:51;;;;;;;;;;;;;;;16.51;100.00;98908.63;5032396;28;19925;-75
2022/06/06 13:17:40;;;;;;;;;;;;;;;16.94;100.00;98913.97;5049681;28;20308;-76
2022/06/06 13:20:12;;;;;;;;;;;;;;;17.22;100.00;98907.09;5043945;28;19933;-75
2022/06/06 13:22:45;;;;;;;;;;;;;;;17.40;100.00;98902.19;5048153;28;19931;-74
2022/06/06 13:25:12;;;;;;;;;;;;;;;17.59;100.00;98905.78;5048578;28;19928;-75
2022/06/06 13:27:42;;;;;;;;;;;;;;;17.52;100.00;98903.31;5050373;28;19947;-76
2022/06/06 13:30:20;;;;;;;;;;;;;;;17.74;100.00;98910.31;5031889;28;19929;-75
2022/06/06 13:33:13;;;;;;;;;;;;;;;17.63;100.00;98906.44;5015457;28;19925;-75